sensor_id;sensor_type;location;lat;lon;timestamp;pressure;altitude;pressure_sealevel;temperature;humidity
73674;BME280;61975;48.660;10.164;2023-05-22T00:00:31;95232.09;;;17.32;80.83
73674;BME280;61975;48.660;10.164;2023-05-22T00:02:57;95241.38;;;17.29;81.46
73674;BME280;61975;48.660;10.164;2023-05-22T00:05:22;95233.03;;;17.25;81.48
73674;BME280;61975;48.660;10.164;2023-05-22T00:07:48;95234.34;;;17.21;82.28
73674;BME280;61975;48.660;10.164;2023-05-22T00:10:13;95233.63;;;17.17;82.91
73674;BME280;61975;48.660;10.164;2023-05-22T00:12:39;95229.06;;;17.07;84.89
73674;BME280;61975;48.660;10.164;2023-05-22T00:15:05;95236.44;;;17.01;85.69
73674;BME280;61975;48.660;10.164;2023-05-22T00:17:30;95226.84;;;16.98;85.16
73674;BME280;61975;48.660;10.164;2023-05-22T00:19:56;95232.53;;;16.95;85.41
73674;BME280;61975;48.660;10.164;2023-05-22T00:22:27;95230.31;;;16.86;86.96
73674;BME280;61975;48.660;10.164;2023-05-22T00:24:56;95227.16;;;16.84;86.73
73674;BME280;61975;48.660;10.164;2023-05-22T00:27:21;95232.84;;;16.81;87.16
73674;BME280;61975;48.660;10.164;2023-05-22T00:29:47;95228.63;;;16.73;88.25
73674;BME280;61975;48.660;10.164;2023-05-22T00:32:12;95229.50;;;16.70;87.89
73674;BME280;61975;48.660;10.164;2023-05-22T00:34:38;95234.28;;;16.69;87.41
73674;BME280;61975;48.660;10.164;2023-05-22T00:37:03;95236.28;;;16.69;87.07
73674;BME280;61975;48.660;10.164;2023-05-22T00:39:29;95227.53;;;16.67;86.96
73674;BME280;61975;48.660;10.164;2023-05-22T00:41:54;95231.22;;;16.64;87.60
73674;BME280;61975;48.660;10.164;2023-05-22T00:44:20;95230.06;;;16.61;87.98
73674;BME280;61975;48.660;10.164;2023-05-22T00:46:45;95222.09;;;16.60;87.89
73674;BME280;61975;48.660;10.164;2023-05-22T00:49:11;95225.81;;;16.53;87.58
73674;BME280;61975;48.660;10.164;2023-05-22T00:51:36;95218.28;;;16.50;87.05
73674;BME280;61975;48.660;10.164;2023-05-22T00:54:03;95217.56;;;16.46;88.67
73674;BME280;61975;48.660;10.164;2023-05-22T00:56:29;95224.38;;;16.45;89.40
73674;BME280;61975;48.660;10.164;2023-05-22T00:58:55;95216.03;;;16.41;89.82
73674;BME280;61975;48.660;10.164;2023-05-22T01:01:20;95211.28;;;16.38;89.64
73674;BME280;61975;48.660;10.164;2023-05-22T01:03:47;95212.94;;;16.36;89.91
73674;BME280;61975;48.660;10.164;2023-05-22T01:06:15;95216.22;;;16.31;90.71
73674;BME280;61975;48.660;10.164;2023-05-22T01:08:42;95220.03;;;16.21;91.31
73674;BME280;61975;48.660;10.164;2023-05-22T01:11:20;95224.47;;;16.18;91.24
73674;BME280;61975;48.660;10.164;2023-05-22T01:21:40;95210.03;;;16.00;91.72
73674;BME280;61975;48.660;10.164;2023-05-22T01:24:36;95216.13;;;15.95;92.99
73674;BME280;61975;48.660;10.164;2023-05-22T01:32:19;95221.13;;;15.84;94.74
73674;BME280;61975;48.660;10.164;2023-05-22T01:34:46;95226.72;;;15.84;94.66
73674;BME280;61975;48.660;10.164;2023-05-22T01:37:17;95223.19;;;15.80;95.35
73674;BME280;61975;48.660;10.164;2023-05-22T01:39:43;95228.00;;;15.80;95.01
73674;BME280;61975;48.660;10.164;2023-05-22T01:42:09;95224.84;;;15.78;95.07
73674;BME280;61975;48.660;10.164;2023-05-22T01:44:35;95226.84;;;15.77;94.83
73674;BME280;61975;48.660;10.164;2023-05-22T01:47:00;95236.47;;;15.76;95.14
73674;BME280;61975;48.660;10.164;2023-05-22T01:49:30;95234.88;;;15.75;94.68
73674;BME280;61975;48.660;10.164;2023-05-22T01:54:39;95236.22;;;15.67;94.96
73674;BME280;61975;48.660;10.164;2023-05-22T01:57:27;95220.78;;;15.59;95.20
73674;BME280;61975;48.660;10.164;2023-05-22T02:00:00;95236.41;;;15.57;95.18
73674;BME280;61975;48.660;10.164;2023-05-22T02:02:32;95241.28;;;15.53;96.18
73674;BME280;61975;48.660;10.164;2023-05-22T02:05:02;95248.91;;;15.49;96.59
73674;BME280;61975;48.660;10.164;2023-05-22T02:07:31;95246.19;;;15.45;96.95
73674;BME280;61975;48.660;10.164;2023-05-22T02:09:57;95243.44;;;15.42;97.20
73674;BME280;61975;48.660;10.164;2023-05-22T02:12:23;95241.50;;;15.39;97.33
73674;BME280;61975;48.660;10.164;2023-05-22T02:14:50;95253.13;;;15.37;97.10
73674;BME280;61975;48.660;10.164;2023-05-22T02:17:15;95247.09;;;15.35;97.64
73674;BME280;61975;48.660;10.164;2023-05-22T02:19:43;95248.75;;;15.33;97.71
73674;BME280;61975;48.660;10.164;2023-05-22T02:22:08;95242.78;;;15.31;97.96
73674;BME280;61975;48.660;10.164;2023-05-22T02:24:39;95242.84;;;15.27;98.06
73674;BME280;61975;48.660;10.164;2023-05-22T02:27:05;95244.03;;;15.26;97.48
73674;BME280;61975;48.660;10.164;2023-05-22T02:29:31;95241.72;;;15.21;97.91
73674;BME280;61975;48.660;10.164;2023-05-22T02:31:56;95246.94;;;15.19;97.21
73674;BME280;61975;48.660;10.164;2023-05-22T02:34:22;95247.00;;;15.16;96.92
73674;BME280;61975;48.660;10.164;2023-05-22T02:36:47;95240.69;;;15.12;96.35
73674;BME280;61975;48.660;10.164;2023-05-22T02:39:16;95242.75;;;15.08;96.43
73674;BME280;61975;48.660;10.164;2023-05-22T02:41:42;95248.78;;;15.03;97.66
73674;BME280;61975;48.660;10.164;2023-05-22T02:44:07;95252.91;;;14.95;99.54
73674;BME280;61975;48.660;10.164;2023-05-22T02:46:32;95248.56;;;14.90;100.00
73674;BME280;61975;48.660;10.164;2023-05-22T02:48:58;95241.03;;;14.87;99.32
73674;BME280;61975;48.660;10.164;2023-05-22T02:51:23;95253.03;;;14.84;99.94
73674;BME280;61975;48.660;10.164;2023-05-22T02:53:49;95247.94;;;14.79;100.00
73674;BME280;61975;48.660;10.164;2023-05-22T02:56:14;95248.34;;;14.78;99.81
73674;BME280;61975;48.660;10.164;2023-05-22T02:58:40;95244.41;;;14.75;100.00
73674;BME280;61975;48.660;10.164;2023-05-22T03:01:05;95238.13;;;14.64;100.00
73674;BME280;61975;48.660;10.164;2023-05-22T03:03:32;95252.50;;;14.66;100.00
73674;BME280;61975;48.660;10.164;2023-05-22T03:05:59;95251.69;;;14.66;100.00
73674;BME280;61975;48.660;10.164;2023-05-22T03:08:26;95258.88;;;14.67;100.00
73674;BME280;61975;48.660;10.164;2023-05-22T03:10:53;95257.69;;;14.64;100.00
73674;BME280;61975;48.660;10.164;2023-05-22T03:13:19;95251.69;;;14.66;100.00
73674;BME280;61975;48.660;10.164;2023-05-22T03:15:44;95258.91;;;14.63;100.00
73674;BME280;61975;48.660;10.164;2023-05-22T03:18:09;95256.13;;;14.63;100.00
73674;BME280;61975;48.660;10.164;2023-05-22T03:20:35;95251.38;;;14.60;100.00
73674;BME280;61975;48.660;10.164;2023-05-22T03:23:00;95252.59;;;14.59;100.00
73674;BME280;61975;48.660;10.164;2023-05-22T03:25:26;95252.97;;;14.61;100.00
73674;BME280;61975;48.660;10.164;2023-05-22T03:27:51;95255.00;;;14.57;100.00
73674;BME280;61975;48.660;10.164;2023-05-22T03:30:17;95259.00;;;14.56;100.00
73674;BME280;61975;48.660;10.164;2023-05-22T03:32:42;95252.19;;;14.57;100.00
73674;BME280;61975;48.660;10.164;2023-05-22T03:35:08;95263.00;;;14.55;98.27
73674;BME280;61975;48.660;10.164;2023-05-22T03:37:33;95258.66;;;14.54;97.68
73674;BME280;61975;48.660;10.164;2023-05-22T03:39:59;95255.50;;;14.49;97.22
73674;BME280;61975;48.660;10.164;2023-05-22T03:42:24;95257.53;;;14.45;97.50
73674;BME280;61975;48.660;10.164;2023-05-22T03:44:50;95252.78;;;14.42;97.08
73674;BME280;61975;48.660;10.164;2023-05-22T03:47:15;95256.03;;;14.40;96.41
73674;BME280;61975;48.660;10.164;2023-05-22T03:49:41;95253.69;;;14.35;96.90
73674;BME280;61975;48.660;10.164;2023-05-22T03:52:09;95252.94;;;14.31;97.63
73674;BME280;61975;48.660;10.164;2023-05-22T03:54:34;95256.16;;;14.26;98.51
73674;BME280;61975;48.660;10.164;2023-05-22T03:57:00;95251.81;;;14.22;99.84
73674;BME280;61975;48.660;10.164;2023-05-22T03:59:25;95260.59;;;14.20;100.00
73674;BME280;61975;48.660;10.164;2023-05-22T04:01:51;95251.44;;;14.20;100.00
73674;BME280;61975;48.660;10.164;2023-05-22T04:04:16;95251.06;;;14.18;100.00
73674;BME280;61975;48.660;10.164;2023-05-22T04:06:41;95252.22;;;14.20;100.00
73674;BME280;61975;48.660;10.164;2023-05-22T04:09:11;95258.19;;;14.22;100.00
73674;BME280;61975;48.660;10.164;2023-05-22T04:11:37;95253.00;;;14.24;100.00
73674;BME280;61975;48.660;10.164;2023-05-22T04:14:07;95259.81;;;14.23;100.00
73674;BME280;61975;48.660;10.164;2023-05-22T04:16:33;95265.41;;;14.23;100.00
73674;BME280;61975;48.660;10.164;2023-05-22T04:18:59;95257.75;;;14.27;100.00
73674;BME280;61975;48.660;10.164;2023-05-22T04:21:27;95261.69;;;14.33;100.00
73674;BME280;61975;48.660;10.164;2023-05-22T04:23:53;95266.00;;;14.38;100.00
73674;BME280;61975;48.660;10.164;2023-05-22T04:26:18;95270.75;;;14.41;100.00
73674;BME280;61975;48.660;10.164;2023-05-22T04:28:45;95268.78;;;14.41;100.00
73674;BME280;61975;48.660;10.164;2023-05-22T04:31:12;95268.72;;;14.45;100.00
73674;BME280;61975;48.660;10.164;2023-05-22T04:33:37;95267.53;;;14.46;100.00
73674;BME280;61975;48.660;10.164;2023-05-22T04:36:05;95276.66;;;14.50;100.00
73674;BME280;61975;48.660;10.164;2023-05-22T04:38:31;95281.75;;;14.55;100.00
73674;BME280;61975;48.660;10.164;2023-05-22T04:41:00;95281.75;;;14.58;99.75
73674;BME280;61975;48.660;10.164;2023-05-22T04:43:26;95277.69;;;14.63;98.54
73674;BME280;61975;48.660;10.164;2023-05-22T04:45:51;95278.44;;;14.67;98.57
73674;BME280;61975;48.660;10.164;2023-05-22T04:48:18;95286.75;;;14.70;98.28
73674;BME280;61975;48.660;10.164;2023-05-22T04:50:43;95284.72;;;14.74;98.22
73674;BME280;61975;48.660;10.164;2023-05-22T04:53:10;95287.47;;;14.78;98.62
73674;BME280;61975;48.660;10.164;2023-05-22T04:55:36;95289.03;;;14.82;98.96
73674;BME280;61975;48.660;10.164;2023-05-22T04:58:02;95286.56;;;14.84;98.12
73674;BME280;61975;48.660;10.164;2023-05-22T05:00:28;95289.69;;;14.90;98.21
73674;BME280;61975;48.660;10.164;2023-05-22T05:02:54;95288.09;;;14.92;97.98
73674;BME280;61975;48.660;10.164;2023-05-22T05:05:21;95284.81;;;14.97;97.54
73674;BME280;61975;48.660;10.164;2023-05-22T05:07:48;95294.31;;;15.03;96.99
73674;BME280;61975;48.660;10.164;2023-05-22T05:10:14;95283.47;;;15.09;97.07
73674;BME280;61975;48.660;10.164;2023-05-22T05:12:39;95280.59;;;15.12;96.34
73674;BME280;61975;48.660;10.164;2023-05-22T05:15:06;95282.13;;;15.17;96.19
73674;BME280;61975;48.660;10.164;2023-05-22T05:17:31;95279.25;;;15.24;96.01
73674;BME280;61975;48.660;10.164;2023-05-22T05:19:56;95273.19;;;15.29;95.93
73674;BME280;61975;48.660;10.164;2023-05-22T05:22:22;95277.06;;;15.35;95.31
73674;BME280;61975;48.660;10.164;2023-05-22T05:24:47;95275.41;;;15.41;94.84
73674;BME280;61975;48.660;10.164;2023-05-22T05:27:13;95279.75;;;15.45;94.66
73674;BME280;61975;48.660;10.164;2023-05-22T05:29:39;95266.50;;;15.49;94.17
73674;BME280;61975;48.660;10.164;2023-05-22T05:32:05;95275.16;;;15.58;93.55
73674;BME280;61975;48.660;10.164;2023-05-22T05:34:31;95279.03;;;15.64;93.39
73674;BME280;61975;48.660;10.164;2023-05-22T05:36:56;95277.34;;;15.70;93.06
73674;BME280;61975;48.660;10.164;2023-05-22T05:39:22;95281.25;;;15.76;92.53
73674;BME280;61975;48.660;10.164;2023-05-22T05:41:47;95271.16;;;15.82;92.54
73674;BME280;61975;48.660;10.164;2023-05-22T05:44:12;95280.63;;;15.88;92.48
73674;BME280;61975;48.660;10.164;2023-05-22T05:46:38;95277.69;;;15.95;92.18
73674;BME280;61975;48.660;10.164;2023-05-22T05:49:07;95281.59;;;16.01;91.72
73674;BME280;61975;48.660;10.164;2023-05-22T05:51:36;95283.84;;;16.10;91.82
73674;BME280;61975;48.660;10.164;2023-05-22T05:54:02;95277.31;;;16.16;91.25
73674;BME280;61975;48.660;10.164;2023-05-22T05:56:28;95276.41;;;16.23;91.13
73674;BME280;61975;48.660;10.164;2023-05-22T05:58:53;95279.84;;;16.30;90.99
73674;BME280;61975;48.660;10.164;2023-05-22T06:01:18;95275.72;;;16.38;90.81
73674;BME280;61975;48.660;10.164;2023-05-22T06:03:44;95272.81;;;16.46;90.01
73674;BME280;61975;48.660;10.164;2023-05-22T06:06:10;95274.25;;;16.54;89.97
73674;BME280;61975;48.660;10.164;2023-05-22T06:08:36;95278.06;;;16.63;89.30
73674;BME280;61975;48.660;10.164;2023-05-22T06:11:02;95273.47;;;16.73;88.51
73674;BME280;61975;48.660;10.164;2023-05-22T06:13:28;95277.69;;;16.81;89.13
73674;BME280;61975;48.660;10.164;2023-05-22T06:15:54;95280.72;;;16.90;89.19
73674;BME280;61975;48.660;10.164;2023-05-22T06:18:19;95279.69;;;17.00;87.61
73674;BME280;61975;48.660;10.164;2023-05-22T06:20:45;95284.72;;;17.08;86.79
73674;BME280;61975;48.660;10.164;2023-05-22T06:23:11;95288.53;;;17.18;85.97
73674;BME280;61975;48.660;10.164;2023-05-22T06:25:36;95288.72;;;17.27;84.96
73674;BME280;61975;48.660;10.164;2023-05-22T06:28:04;95283.66;;;17.38;83.94
73674;BME280;61975;48.660;10.164;2023-05-22T06:30:30;95281.88;;;17.47;83.13
73674;BME280;61975;48.660;10.164;2023-05-22T06:32:55;95284.41;;;17.58;82.28
73674;BME280;61975;48.660;10.164;2023-05-22T06:35:21;95293.03;;;17.67;81.74
73674;BME280;61975;48.660;10.164;2023-05-22T06:37:46;95286.00;;;17.75;80.76
73674;BME280;61975;48.660;10.164;2023-05-22T06:40:12;95276.19;;;17.83;80.68
73674;BME280;61975;48.660;10.164;2023-05-22T06:42:37;95280.75;;;17.93;80.68
73674;BME280;61975;48.660;10.164;2023-05-22T06:45:03;95281.25;;;18.04;80.71
73674;BME280;61975;48.660;10.164;2023-05-22T06:47:29;95272.22;;;18.12;79.88
73674;BME280;61975;48.660;10.164;2023-05-22T06:49:55;95271.94;;;18.23;77.69
73674;BME280;61975;48.660;10.164;2023-05-22T06:52:20;95274.13;;;18.31;77.34
73674;BME280;61975;48.660;10.164;2023-05-22T06:54:46;95281.97;;;18.40;76.94
73674;BME280;61975;48.660;10.164;2023-05-22T06:57:11;95274.47;;;18.49;76.37
73674;BME280;61975;48.660;10.164;2023-05-22T06:59:36;95283.50;;;18.57;75.95
73674;BME280;61975;48.660;10.164;2023-05-22T07:02:02;95282.88;;;18.65;75.96
73674;BME280;61975;48.660;10.164;2023-05-22T07:04:27;95286.44;;;18.66;76.02
73674;BME280;61975;48.660;10.164;2023-05-22T07:06:53;95281.75;;;18.63;76.95
73674;BME280;61975;48.660;10.164;2023-05-22T07:09:18;95283.44;;;18.73;78.51
73674;BME280;61975;48.660;10.164;2023-05-22T07:11:45;95297.16;;;18.71;79.06
73674;BME280;61975;48.660;10.164;2023-05-22T07:16:43;95290.94;;;18.92;76.74
73674;BME280;61975;48.660;10.164;2023-05-22T07:19:09;95288.00;;;18.95;75.26
73674;BME280;61975;48.660;10.164;2023-05-22T07:21:36;95290.38;;;18.97;74.24
73674;BME280;61975;48.660;10.164;2023-05-22T07:24:02;95285.00;;;19.02;74.28
73674;BME280;61975;48.660;10.164;2023-05-22T07:26:33;95295.28;;;19.09;74.19
73674;BME280;61975;48.660;10.164;2023-05-22T07:28:59;95289.44;;;19.16;73.01
73674;BME280;61975;48.660;10.164;2023-05-22T07:31:25;95288.53;;;19.07;72.89
73674;BME280;61975;48.660;10.164;2023-05-22T07:33:50;95293.06;;;18.88;73.27
73674;BME280;61975;48.660;10.164;2023-05-22T07:36:15;95284.63;;;18.88;73.95
73674;BME280;61975;48.660;10.164;2023-05-22T07:38:43;95292.09;;;19.07;72.71
73674;BME280;61975;48.660;10.164;2023-05-22T07:41:08;95288.06;;;19.08;72.10
73674;BME280;61975;48.660;10.164;2023-05-22T07:43:34;95293.72;;;19.21;71.48
73674;BME280;61975;48.660;10.164;2023-05-22T07:45:59;95291.28;;;19.35;71.35
73674;BME280;61975;48.660;10.164;2023-05-22T07:48:24;95294.25;;;19.44;70.60
73674;BME280;61975;48.660;10.164;2023-05-22T07:50:50;95293.13;;;19.54;70.41
73674;BME280;61975;48.660;10.164;2023-05-22T07:53:15;95285.56;;;19.64;71.54
73674;BME280;61975;48.660;10.164;2023-05-22T07:55:41;95286.59;;;19.70;72.11
73674;BME280;61975;48.660;10.164;2023-05-22T07:58:06;95284.81;;;19.76;71.39
73674;BME280;61975;48.660;10.164;2023-05-22T08:00:32;95285.69;;;19.85;70.47
73674;BME280;61975;48.660;10.164;2023-05-22T08:02:58;95287.94;;;19.90;70.69
73674;BME280;61975;48.660;10.164;2023-05-22T08:05:23;95288.03;;;19.99;70.64
73674;BME280;61975;48.660;10.164;2023-05-22T08:07:48;95284.66;;;20.04;70.72
73674;BME280;61975;48.660;10.164;2023-05-22T08:10:15;95278.78;;;19.99;70.62
73674;BME280;61975;48.660;10.164;2023-05-22T08:12:41;95280.47;;;20.09;69.55
73674;BME280;61975;48.660;10.164;2023-05-22T08:15:07;95282.97;;;20.19;68.38
73674;BME280;61975;48.660;10.164;2023-05-22T08:17:32;95282.75;;;20.26;68.18
73674;BME280;61975;48.660;10.164;2023-05-22T08:19:58;95282.50;;;20.33;67.24
73674;BME280;61975;48.660;10.164;2023-05-22T08:22:23;95279.88;;;20.39;66.92
73674;BME280;61975;48.660;10.164;2023-05-22T08:24:49;95281.22;;;20.47;66.84
73674;BME280;61975;48.660;10.164;2023-05-22T08:27:14;95276.13;;;20.54;66.96
73674;BME280;61975;48.660;10.164;2023-05-22T08:29:39;95282.72;;;20.60;66.19
73674;BME280;61975;48.660;10.164;2023-05-22T08:32:05;95285.28;;;20.67;66.89
73674;BME280;61975;48.660;10.164;2023-05-22T08:34:31;95282.03;;;20.69;65.60
73674;BME280;61975;48.660;10.164;2023-05-22T08:36:57;95284.72;;;20.72;64.67
73674;BME280;61975;48.660;10.164;2023-05-22T08:39:23;95280.78;;;20.70;64.44
73674;BME280;61975;48.660;10.164;2023-05-22T08:41:49;95268.91;;;20.75;65.23
73674;BME280;61975;48.660;10.164;2023-05-22T08:44:15;95271.38;;;20.85;64.82
73674;BME280;61975;48.660;10.164;2023-05-22T08:46:40;95278.69;;;20.95;64.39
73674;BME280;61975;48.660;10.164;2023-05-22T08:49:09;95271.84;;;21.05;64.12
73674;BME280;61975;48.660;10.164;2023-05-22T08:51:39;95268.75;;;21.12;63.08
73674;BME280;61975;48.660;10.164;2023-05-22T08:54:05;95273.66;;;21.21;63.16
73674;BME280;61975;48.660;10.164;2023-05-22T08:56:37;95266.63;;;21.25;61.95
73674;BME280;61975;48.660;10.164;2023-05-22T08:59:03;95275.19;;;21.34;62.03
73674;BME280;61975;48.660;10.164;2023-05-22T09:01:29;95272.38;;;21.43;61.67
73674;BME280;61975;48.660;10.164;2023-05-22T09:04:02;95269.28;;;21.50;61.80
73674;BME280;61975;48.660;10.164;2023-05-22T09:06:28;95269.50;;;21.56;61.44
73674;BME280;61975;48.660;10.164;2023-05-22T09:08:58;95266.53;;;21.59;60.47
73674;BME280;61975;48.660;10.164;2023-05-22T09:11:23;95258.38;;;21.62;60.12
73674;BME280;61975;48.660;10.164;2023-05-22T09:13:50;95267.97;;;21.64;58.77
73674;BME280;61975;48.660;10.164;2023-05-22T09:16:16;95267.25;;;21.73;58.23
73674;BME280;61975;48.660;10.164;2023-05-22T09:18:43;95265.66;;;21.72;58.64
73674;BME280;61975;48.660;10.164;2023-05-22T09:21:10;95255.97;;;21.82;58.49
73674;BME280;61975;48.660;10.164;2023-05-22T09:23:36;95264.94;;;21.89;59.44
73674;BME280;61975;48.660;10.164;2023-05-22T09:26:02;95260.41;;;21.92;59.62
73674;BME280;61975;48.660;10.164;2023-05-22T09:28:32;95257.28;;;21.99;58.60
73674;BME280;61975;48.660;10.164;2023-05-22T09:30:59;95266.25;;;22.06;59.34
73674;BME280;61975;48.660;10.164;2023-05-22T09:33:24;95264.06;;;22.10;58.16
73674;BME280;61975;48.660;10.164;2023-05-22T09:35:53;95268.16;;;22.18;58.28
73674;BME280;61975;48.660;10.164;2023-05-22T09:38:26;95257.34;;;22.26;56.71
73674;BME280;61975;48.660;10.164;2023-05-22T09:40:53;95262.72;;;22.33;57.22
73674;BME280;61975;48.660;10.164;2023-05-22T09:43:20;95264.47;;;22.39;58.07
73674;BME280;61975;48.660;10.164;2023-05-22T09:45:46;95259.44;;;22.43;57.29
73674;BME280;61975;48.660;10.164;2023-05-22T09:48:15;95260.41;;;22.49;54.75
73674;BME280;61975;48.660;10.164;2023-05-22T09:50:45;95258.69;;;22.52;54.61
73674;BME280;61975;48.660;10.164;2023-05-22T09:53:11;95254.63;;;22.62;54.83
73674;BME280;61975;48.660;10.164;2023-05-22T09:55:40;95254.63;;;22.71;54.23
73674;BME280;61975;48.660;10.164;2023-05-22T09:58:06;95262.63;;;22.72;53.63
73674;BME280;61975;48.660;10.164;2023-05-22T10:00:34;95256.06;;;22.84;53.05
73674;BME280;61975;48.660;10.164;2023-05-22T10:03:04;95256.81;;;22.94;53.18
73674;BME280;61975;48.660;10.164;2023-05-22T10:05:32;95249.91;;;23.04;53.06
73674;BME280;61975;48.660;10.164;2023-05-22T10:08:13;95243.59;;;23.09;52.65
73674;BME280;61975;48.660;10.164;2023-05-22T10:10:41;95250.53;;;23.08;52.77
73674;BME280;61975;48.660;10.164;2023-05-22T10:13:07;95255.25;;;23.02;53.09
73674;BME280;61975;48.660;10.164;2023-05-22T10:15:33;95250.53;;;23.08;53.27
73674;BME280;61975;48.660;10.164;2023-05-22T10:17:59;95246.56;;;23.14;52.68
73674;BME280;61975;48.660;10.164;2023-05-22T10:20:26;95249.91;;;23.22;51.92
73674;BME280;61975;48.660;10.164;2023-05-22T10:22:53;95248.63;;;23.32;51.85
73674;BME280;61975;48.660;10.164;2023-05-22T10:25:19;95246.06;;;23.43;51.50
73674;BME280;61975;48.660;10.164;2023-05-22T10:27:47;95246.34;;;23.54;52.03
73674;BME280;61975;48.660;10.164;2023-05-22T10:30:55;95242.56;;;23.66;51.83
73674;BME280;61975;48.660;10.164;2023-05-22T10:33:12;95253.22;;;23.80;49.53
73674;BME280;61975;48.660;10.164;2023-05-22T10:41:03;95240.84;;;24.01;46.73
73674;BME280;61975;48.660;10.164;2023-05-22T10:43:29;95235.44;;;24.12;47.37
73674;BME280;61975;48.660;10.164;2023-05-22T10:46:04;95234.59;;;24.21;47.73
73674;BME280;61975;48.660;10.164;2023-05-22T10:48:39;95236.00;;;24.25;47.65
73674;BME280;61975;48.660;10.164;2023-05-22T10:51:08;95232.47;;;24.30;48.59
73674;BME280;61975;48.660;10.164;2023-05-22T10:53:34;95231.53;;;24.33;48.26
73674;BME280;61975;48.660;10.164;2023-05-22T10:56:09;95232.91;;;24.38;47.43
73674;BME280;61975;48.660;10.164;2023-05-22T10:58:35;95226.09;;;24.44;46.55
73674;BME280;61975;48.660;10.164;2023-05-22T11:03:57;95219.94;;;24.69;45.30
73674;BME280;61975;48.660;10.164;2023-05-22T11:12:18;95214.19;;;24.78;45.61
73674;BME280;61975;48.660;10.164;2023-05-22T11:14:55;95216.44;;;24.74;45.11
73674;BME280;61975;48.660;10.164;2023-05-22T11:20:12;95214.16;;;24.64;45.15
73674;BME280;61975;48.660;10.164;2023-05-22T11:22:43;95206.94;;;24.54;45.35
73674;BME280;61975;48.660;10.164;2023-05-22T11:25:09;95216.94;;;24.49;45.48
73674;BME280;61975;48.660;10.164;2023-05-22T11:27:36;95219.13;;;24.45;45.84
73674;BME280;61975;48.660;10.164;2023-05-22T11:30:03;95219.34;;;24.42;45.71
73674;BME280;61975;48.660;10.164;2023-05-22T11:32:29;95216.97;;;24.40;46.01
73674;BME280;61975;48.660;10.164;2023-05-22T11:34:55;95220.91;;;24.43;45.45
73674;BME280;61975;48.660;10.164;2023-05-22T11:37:21;95209.25;;;24.41;45.81
73674;BME280;61975;48.660;10.164;2023-05-22T11:39:57;95216.97;;;24.40;45.79
73674;BME280;61975;48.660;10.164;2023-05-22T11:42:23;95217.56;;;24.44;45.01
73674;BME280;61975;48.660;10.164;2023-05-22T11:44:49;95209.06;;;24.44;45.02
73674;BME280;61975;48.660;10.164;2023-05-22T11:47:15;95207.97;;;24.42;44.16
73674;BME280;61975;48.660;10.164;2023-05-22T11:49:41;95206.22;;;24.44;43.36
73674;BME280;61975;48.660;10.164;2023-05-22T11:52:07;95203.38;;;24.44;44.15
73674;BME280;61975;48.660;10.164;2023-05-22T11:54:33;95210.63;;;24.45;44.35
73674;BME280;61975;48.660;10.164;2023-05-22T11:56:58;95206.72;;;24.43;43.97
73674;BME280;61975;48.660;10.164;2023-05-22T11:59:24;95212.59;;;24.39;43.72
73674;BME280;61975;48.660;10.164;2023-05-22T12:01:50;95201.03;;;24.43;43.52
73674;BME280;61975;48.660;10.164;2023-05-22T12:04:16;95190.75;;;24.45;44.08
73674;BME280;61975;48.660;10.164;2023-05-22T12:06:41;95200.88;;;24.46;43.41
73674;BME280;61975;48.660;10.164;2023-05-22T12:09:07;95197.06;;;24.49;43.44
73674;BME280;61975;48.660;10.164;2023-05-22T12:11:34;95196.38;;;24.54;43.16
73674;BME280;61975;48.660;10.164;2023-05-22T12:14:03;95196.50;;;24.60;42.61
73674;BME280;61975;48.660;10.164;2023-05-22T12:16:35;95198.22;;;24.66;42.77
73674;BME280;61975;48.660;10.164;2023-05-22T12:19:07;95191.16;;;24.76;43.43
73674;BME280;61975;48.660;10.164;2023-05-22T12:21:33;95187.50;;;24.99;42.91
73674;BME280;61975;48.660;10.164;2023-05-22T12:24:04;95182.31;;;25.12;41.57
73674;BME280;61975;48.660;10.164;2023-05-22T12:26:31;95185.25;;;25.18;39.96
73674;BME280;61975;48.660;10.164;2023-05-22T12:28:57;95191.16;;;25.29;40.36
73674;BME280;61975;48.660;10.164;2023-05-22T12:31:24;95185.09;;;25.50;39.88
73674;BME280;61975;48.660;10.164;2023-05-22T12:33:56;95187.41;;;25.66;39.67
73674;BME280;61975;48.660;10.164;2023-05-22T12:36:36;95180.91;;;25.80;39.22
73674;BME280;61975;48.660;10.164;2023-05-22T12:39:06;95184.72;;;26.06;40.59
73674;BME280;61975;48.660;10.164;2023-05-22T12:41:32;95179.56;;;26.25;41.05
73674;BME280;61975;48.660;10.164;2023-05-22T12:43:57;95182.91;;;26.43;38.36
73674;BME280;61975;48.660;10.164;2023-05-22T12:46:23;95176.03;;;26.70;41.46
73674;BME280;61975;48.660;10.164;2023-05-22T12:48:48;95182.22;;;26.89;44.33
73674;BME280;61975;48.660;10.164;2023-05-22T12:51:14;95187.94;;;27.14;44.52
73674;BME280;61975;48.660;10.164;2023-05-22T12:53:39;95195.41;;;27.32;44.08
73674;BME280;61975;48.660;10.164;2023-05-22T12:56:05;95186.69;;;27.41;40.95
73674;BME280;61975;48.660;10.164;2023-05-22T12:58:30;95186.72;;;27.21;39.40
73674;BME280;61975;48.660;10.164;2023-05-22T13:00:56;95179.31;;;27.09;39.51
73674;BME280;61975;48.660;10.164;2023-05-22T13:03:21;95174.69;;;27.11;40.59
73674;BME280;61975;48.660;10.164;2023-05-22T13:05:46;95182.16;;;27.09;40.88
73674;BME280;61975;48.660;10.164;2023-05-22T13:08:12;95175.09;;;27.24;41.44
73674;BME280;61975;48.660;10.164;2023-05-22T13:10:37;95172.44;;;27.41;41.18
73674;BME280;61975;48.660;10.164;2023-05-22T13:13:03;95171.78;;;27.57;40.83
73674;BME280;61975;48.660;10.164;2023-05-22T13:15:28;95171.06;;;27.62;40.78
73674;BME280;61975;48.660;10.164;2023-05-22T13:17:55;95166.31;;;27.53;41.95
73674;BME280;61975;48.660;10.164;2023-05-22T13:20:21;95172.44;;;27.41;43.92